Terminal Aerodrome Forecast
Issued by NWS Greer, SC

Home | Current Version | Previous Version | Text Only | Print | Product List | Glossary On
Versions: 1 2 3 4 5 6 7 8 9 10 11 12 13 14 15 16 17 18 19 20 21 22 23 24 25 26 27 28 29 30 31 32 33 34 35 36 37 38 39 40
000
FTUS42 KGSP 261120
TAFAVL
TAF
KAVL 261120Z 2612/2712 35005KT P6SM SCT070 OVC090
     FM261400 32008G17KT P6SM OVC025
     FM261600 32011G19KT P6SM BKN015
     FM261800 32012G21KT P6SM BKN025
     FM262100 32011G19KT P6SM BKN050
     FM270700 32010G18KT P6SM SCT110=

USA.gov is the U.S. government's official web portal to all federal, state and local government web resources and services.